createdAt,value
2017-06-09T00:00:15.335Z,0
2017-06-09T00:01:25.682Z,0
2017-06-09T00:02:36.039Z,0
2017-06-09T00:03:46.376Z,0
2017-06-09T00:04:56.719Z,0
2017-06-09T00:06:06.766Z,0
2017-06-09T00:07:17.186Z,0
2017-06-09T00:08:27.219Z,0
2017-06-09T00:09:37.582Z,0
2017-06-09T00:10:47.935Z,0
2017-06-09T00:11:57.672Z,0
2017-06-09T00:13:07.420Z,0
2017-06-09T00:14:17.799Z,0
2017-06-09T00:15:27.836Z,0
2017-06-09T00:16:37.884Z,0
2017-06-09T00:17:48.242Z,0
2017-06-09T00:18:58.280Z,0
2017-06-09T00:20:08.645Z,0
2017-06-09T00:21:18.989Z,0
2017-06-09T00:22:29.385Z,0
2017-06-09T00:23:39.753Z,0
2017-06-09T00:24:49.789Z,0
2017-06-09T00:26:00.131Z,0
2017-06-09T00:27:10.479Z,0
2017-06-09T00:28:20.933Z,0
2017-06-09T00:29:31.292Z,0
2017-06-09T00:30:41.326Z,0
2017-06-09T00:31:51.671Z,0
2017-06-09T00:33:02.015Z,0
2017-06-09T00:34:12.381Z,0
2017-06-09T00:35:22.415Z,0
2017-06-09T00:36:32.470Z,0
2017-06-09T00:37:42.862Z,0
2017-06-09T00:38:53.206Z,0
2017-06-09T00:40:03.595Z,0
2017-06-09T00:41:13.929Z,0
2017-06-09T00:42:24.269Z,0
2017-06-09T00:43:33.991Z,0
2017-06-09T00:44:44.347Z,0
2017-06-09T00:45:54.791Z,0
2017-06-09T00:47:05.142Z,0
2017-06-09T00:48:15.490Z,0
2017-06-09T00:49:25.841Z,0
2017-06-09T00:50:36.197Z,0
2017-06-09T00:51:46.238Z,0
2017-06-09T00:52:56.285Z,0
2017-06-09T00:54:06.341Z,0
2017-06-09T00:55:16.692Z,0
2017-06-09T00:56:27.044Z,0
2017-06-09T00:57:37.387Z,0
2017-06-09T00:58:47.751Z,0
2017-06-09T00:59:58.101Z,0
2017-06-09T01:01:08.161Z,0
2017-06-09T01:02:18.495Z,0
2017-06-09T01:03:28.675Z,0
2017-06-09T01:04:38.389Z,0
2017-06-09T01:05:48.746Z,0
2017-06-09T01:06:58.792Z,0
2017-06-09T01:08:08.827Z,0
2017-06-09T01:09:19.219Z,0
2017-06-09T01:10:29.565Z,0
2017-06-09T01:11:39.940Z,0
2017-06-09T01:12:50.298Z,0
2017-06-09T01:14:00.642Z,0
2017-06-09T01:15:11.060Z,0
2017-06-09T01:16:21.407Z,0
2017-06-09T01:17:31.772Z,0
2017-06-09T01:18:42.119Z,0
2017-06-09T01:19:52.466Z,0
2017-06-09T01:21:02.502Z,0
2017-06-09T01:22:12.850Z,0
2017-06-09T01:23:22.886Z,0
2017-06-09T01:24:33.229Z,0
2017-06-09T01:25:43.566Z,0
2017-06-09T01:26:53.925Z,0
2017-06-09T01:28:04.278Z,0
2017-06-09T01:29:14.303Z,0
2017-06-09T01:30:24.645Z,0
2017-06-09T01:31:34.680Z,0
2017-06-09T01:32:45.092Z,0
2017-06-09T01:33:55.426Z,0
2017-06-09T01:35:05.772Z,0
2017-06-09T01:36:16.112Z,0
2017-06-09T01:37:26.453Z,0
2017-06-09T01:38:36.533Z,0
2017-06-09T01:39:46.905Z,0
2017-06-09T01:40:57.277Z,0
2017-06-09T01:42:07.618Z,0
2017-06-09T01:43:17.966Z,0
2017-06-09T01:44:28.351Z,0
2017-06-09T01:45:38.710Z,0
2017-06-09T01:46:49.066Z,0
2017-06-09T01:47:59.409Z,0
2017-06-09T01:49:09.756Z,0
2017-06-09T01:50:20.106Z,0
2017-06-09T01:51:30.558Z,0
2017-06-09T01:52:40.903Z,0
2017-06-09T01:53:51.249Z,0
2017-06-09T01:55:01.637Z,0
2017-06-09T01:56:11.983Z,0
2017-06-09T01:57:22.022Z,0
2017-06-09T01:58:32.365Z,0
2017-06-09T01:59:42.703Z,0
2017-06-09T02:00:53.051Z,0
2017-06-09T02:02:03.450Z,0
2017-06-09T02:03:13.482Z,0
2017-06-09T02:04:23.529Z,0
2017-06-09T02:05:33.565Z,0
2017-06-09T02:06:43.907Z,0
2017-06-09T02:07:53.935Z,0
2017-06-09T02:09:03.968Z,0
2017-06-09T02:10:14.013Z,0
2017-06-09T02:11:24.047Z,0
2017-06-09T02:12:34.395Z,0
2017-06-09T02:13:43.855Z,0
2017-06-09T02:14:53.917Z,0
2017-06-09T02:16:04.261Z,0
2017-06-09T02:17:14.607Z,0
2017-06-09T02:18:24.654Z,0
2017-06-09T02:19:34.678Z,0
2017-06-09T02:20:45.013Z,0
2017-06-09T02:21:55.356Z,0
2017-06-09T02:23:05.389Z,0
2017-06-09T02:24:15.729Z,0
2017-06-09T02:25:26.106Z,0
2017-06-09T02:26:36.450Z,0
2017-06-09T02:27:46.483Z,0
2017-06-09T02:28:56.838Z,0
2017-06-09T02:30:07.182Z,0
2017-06-09T02:31:17.221Z,0
2017-06-09T02:32:27.266Z,0
2017-06-09T02:33:37.614Z,0
2017-06-09T02:34:47.982Z,0
2017-06-09T02:35:57.716Z,0
2017-06-09T02:37:08.107Z,0
2017-06-09T02:38:18.463Z,0
2017-06-09T02:39:28.810Z,0
2017-06-09T02:40:39.166Z,0
2017-06-09T02:41:49.535Z,0
2017-06-09T02:42:59.943Z,0
2017-06-09T02:44:09.976Z,0
2017-06-09T02:45:20.319Z,0
2017-06-09T02:46:30.669Z,0
2017-06-09T02:47:41.004Z,0
2017-06-09T02:48:51.396Z,0
2017-06-09T02:50:01.769Z,5
2017-06-09T02:51:12.120Z,5
2017-06-09T02:52:22.138Z,5
2017-06-09T02:53:32.478Z,5
2017-06-09T02:54:42.835Z,5
2017-06-09T02:55:52.862Z,5
2017-06-09T02:57:03.217Z,5
2017-06-09T02:58:13.560Z,5
2017-06-09T02:59:23.911Z,10
2017-06-09T03:00:34.294Z,10
2017-06-09T03:01:44.330Z,10
2017-06-09T03:33:11.009Z,35
2017-06-09T03:34:21.349Z,40
2017-06-09T03:35:31.074Z,40
2017-06-09T03:36:41.418Z,40
2017-06-09T03:37:51.761Z,40
2017-06-09T03:39:02.147Z,40
2017-06-09T03:40:11.859Z,45
2017-06-09T03:41:21.915Z,45
2017-06-09T03:42:32.262Z,45
2017-06-09T03:43:42.604Z,45
2017-06-09T03:44:52.360Z,50
2017-06-09T03:46:02.081Z,50
2017-06-09T03:47:12.440Z,50
2017-06-09T03:48:22.837Z,50
2017-06-09T03:49:32.877Z,55
2017-06-09T03:50:43.249Z,55
2017-06-09T03:51:53.596Z,55
2017-06-09T03:53:03.937Z,55
2017-06-09T03:54:14.327Z,55
2017-06-09T03:55:24.673Z,60
2017-06-09T03:56:35.083Z,60
2017-06-09T03:57:45.445Z,60
2017-06-09T03:58:55.798Z,60
2017-06-09T04:00:05.839Z,60
2017-06-09T04:01:16.189Z,65
2017-06-09T04:02:26.214Z,65
2017-06-09T04:03:36.561Z,65
2017-06-09T04:04:46.915Z,65
2017-06-09T04:05:56.987Z,70
2017-06-09T04:07:07.018Z,70
2017-06-09T04:08:17.412Z,70
2017-06-09T04:09:27.751Z,70
2017-06-09T04:10:37.470Z,70
2017-06-09T04:11:47.512Z,70
2017-06-09T04:12:57.541Z,70
2017-06-09T04:14:07.586Z,75
2017-06-09T04:15:17.622Z,75
2017-06-09T04:16:27.974Z,75
2017-06-09T04:17:38.316Z,245
2017-06-09T04:18:48.672Z,560
2017-06-09T04:19:58.458Z,640
2017-06-09T04:21:08.506Z,645
2017-06-09T04:22:18.856Z,630
2017-06-09T04:23:29.201Z,640
2017-06-09T04:24:39.240Z,670
2017-06-09T04:25:49.259Z,720
2017-06-09T04:26:59.602Z,695
2017-06-09T04:28:09.939Z,690
2017-06-09T04:29:20.294Z,655
2017-06-09T04:30:30.331Z,620
2017-06-09T04:31:40.732Z,655
2017-06-09T04:32:50.758Z,655
2017-06-09T04:34:00.794Z,595
2017-06-09T04:35:11.131Z,610
2017-06-09T04:36:21.493Z,650
2017-06-09T04:37:31.845Z,670
2017-06-09T04:38:42.192Z,665
2017-06-09T04:39:52.231Z,690
2017-06-09T04:41:02.265Z,700
2017-06-09T04:42:12.306Z,710
2017-06-09T04:43:22.674Z,705
2017-06-09T04:44:32.705Z,650
2017-06-09T04:45:43.052Z,650
2017-06-09T04:46:53.419Z,670
2017-06-09T04:48:03.759Z,685
2017-06-09T04:49:14.127Z,715
2017-06-09T04:50:24.162Z,710
2017-06-09T04:51:34.521Z,700
2017-06-09T04:52:44.879Z,700
2017-06-09T04:53:54.910Z,685
2017-06-09T04:55:05.014Z,680
2017-06-09T04:56:15.102Z,680
2017-06-09T04:57:25.147Z,670
2017-06-09T04:58:35.522Z,665
2017-06-09T04:59:45.876Z,685
2017-06-09T05:00:55.982Z,695
2017-06-09T05:02:06.038Z,690
2017-06-09T05:03:16.085Z,675
2017-06-09T05:04:26.122Z,655
2017-06-09T05:05:36.178Z,670
2017-06-09T05:06:45.656Z,675
2017-06-09T05:07:55.396Z,665
2017-06-09T05:09:05.433Z,635
2017-06-09T05:10:15.789Z,625
2017-06-09T05:11:25.941Z,605
2017-06-09T05:12:36.334Z,575
2017-06-09T05:13:45.786Z,520
2017-06-09T05:14:55.827Z,470
2017-06-09T05:16:06.180Z,430
2017-06-09T05:17:16.545Z,410
2017-06-09T05:18:26.631Z,385
2017-06-09T05:19:37.011Z,375
2017-06-09T05:20:47.363Z,365
2017-06-09T05:21:57.737Z,360
2017-06-09T05:23:08.099Z,355
2017-06-09T05:24:18.479Z,355
2017-06-09T05:25:28.516Z,350
2017-06-09T05:26:38.876Z,350
2017-06-09T05:27:48.636Z,355
2017-06-09T05:28:58.683Z,350
2017-06-09T05:30:09.109Z,355
2017-06-09T05:31:19.174Z,350
2017-06-09T05:32:29.527Z,345
2017-06-09T05:33:39.571Z,345
2017-06-09T05:34:49.294Z,350
2017-06-09T05:35:59.085Z,360
2017-06-09T05:37:08.502Z,360
2017-06-09T05:38:18.547Z,375
2017-06-09T05:39:28.581Z,380
2017-06-09T05:40:38.627Z,385
2017-06-09T05:41:49.032Z,390
2017-06-09T05:42:59.089Z,345
2017-06-09T05:44:09.138Z,300
2017-06-09T05:45:19.473Z,335
2017-06-09T05:46:29.506Z,315
2017-06-09T05:47:39.562Z,300
2017-06-09T05:48:49.903Z,335
2017-06-09T05:49:59.945Z,330
2017-06-09T05:51:09.998Z,330
2017-06-09T05:52:20.355Z,380
2017-06-09T05:53:30.756Z,375
2017-06-09T05:54:41.117Z,405
2017-06-09T05:55:51.166Z,365
2017-06-09T05:57:01.210Z,330
2017-06-09T05:58:11.562Z,365
2017-06-09T05:59:21.667Z,295
2017-06-09T06:00:32.026Z,310
2017-06-09T06:01:42.384Z,340
2017-06-09T06:02:52.426Z,325
2017-06-09T06:04:02.461Z,385
2017-06-09T06:05:12.553Z,425
2017-06-09T06:06:22.586Z,425
2017-06-09T06:07:32.941Z,435
2017-06-09T06:08:43.293Z,420
2017-06-09T06:09:53.338Z,420
2017-06-09T06:11:03.451Z,420
2017-06-09T06:12:13.806Z,405
2017-06-09T06:13:24.152Z,400
2017-06-09T06:14:34.202Z,360
2017-06-09T06:15:44.563Z,390
2017-06-09T06:16:54.971Z,385
2017-06-09T06:18:05.330Z,365
2017-06-09T06:19:15.389Z,375
2017-06-09T06:20:25.435Z,375
2017-06-09T06:21:35.788Z,365
2017-06-09T06:22:46.136Z,360
2017-06-09T06:23:56.491Z,360
2017-06-09T06:25:06.859Z,355
2017-06-09T06:26:17.224Z,355
2017-06-09T06:27:26.959Z,345
2017-06-09T06:28:37.333Z,345
2017-06-09T06:29:47.676Z,340
2017-06-09T06:30:57.719Z,320
2017-06-09T06:32:08.091Z,315
2017-06-09T06:33:18.440Z,310
2017-06-09T06:34:28.525Z,310
2017-06-09T06:35:38.553Z,305
2017-06-09T06:36:48.932Z,305
2017-06-09T06:37:58.349Z,300
2017-06-09T06:39:08.703Z,295
2017-06-09T06:40:18.798Z,290
2017-06-09T06:41:29.165Z,285
2017-06-09T06:42:39.516Z,280
2017-06-09T06:43:49.873Z,270
2017-06-09T06:44:59.941Z,270
2017-06-09T06:46:10.355Z,265
2017-06-09T06:47:20.406Z,265
2017-06-09T06:48:30.754Z,260
2017-06-09T06:49:40.799Z,255
2017-06-09T06:50:51.162Z,255
2017-06-09T06:52:01.579Z,250
2017-06-09T06:53:11.609Z,245
2017-06-09T06:54:21.961Z,235
2017-06-09T06:55:32.320Z,235
2017-06-09T06:56:42.682Z,230
2017-06-09T06:57:53.082Z,225
2017-06-09T06:59:03.440Z,220
2017-06-09T07:00:13.797Z,215
2017-06-09T07:01:24.158Z,210
2017-06-09T07:02:34.197Z,205
2017-06-09T07:03:43.930Z,200
2017-06-09T07:04:54.300Z,195
2017-06-09T07:06:04.654Z,190
2017-06-09T07:07:15.031Z,190
2017-06-09T07:08:25.369Z,185
2017-06-09T07:09:35.777Z,180
2017-06-09T07:10:45.814Z,175
2017-06-09T07:11:55.915Z,165
2017-06-09T07:13:05.646Z,160
2017-06-09T07:14:15.686Z,155
2017-06-09T07:15:26.155Z,155
2017-06-09T07:16:36.213Z,155
2017-06-09T07:17:46.244Z,155
2017-06-09T07:18:56.289Z,155
2017-06-09T07:20:06.327Z,155
2017-06-09T07:21:16.415Z,155
2017-06-09T07:22:26.517Z,155
2017-06-09T07:23:36.547Z,155
2017-06-09T07:24:46.921Z,160
2017-06-09T07:25:56.955Z,160
2017-06-09T07:27:07.086Z,160
2017-06-09T07:28:17.453Z,160
2017-06-09T07:29:27.498Z,160
2017-06-09T07:30:37.872Z,160
2017-06-09T07:31:48.220Z,160
2017-06-09T07:32:58.348Z,160
2017-06-09T07:34:08.693Z,160
2017-06-09T07:35:18.423Z,160
2017-06-09T07:36:28.463Z,160
2017-06-09T07:37:38.811Z,160
2017-06-09T07:38:48.911Z,160
2017-06-09T07:39:58.985Z,165
2017-06-09T07:41:09.350Z,165
2017-06-09T07:42:19.704Z,165
2017-06-09T07:43:30.055Z,165
2017-06-09T07:44:40.478Z,165
2017-06-09T07:45:50.822Z,165
2017-06-09T07:47:00.852Z,165
2017-06-09T07:48:10.886Z,165
2017-06-09T07:49:20.920Z,165
2017-06-09T07:50:31.028Z,165
2017-06-09T07:51:40.769Z,165
2017-06-09T07:52:50.806Z,165
2017-06-09T07:54:00.825Z,165
2017-06-09T07:55:11.174Z,165
2017-06-09T07:56:21.577Z,165
2017-06-09T07:57:31.937Z,165
2017-06-09T07:58:42.284Z,165
2017-06-09T07:59:52.020Z,165
2017-06-09T08:01:02.366Z,165
2017-06-09T08:02:12.399Z,165
2017-06-09T08:03:22.733Z,170
2017-06-09T08:04:32.783Z,170
2017-06-09T08:05:42.811Z,170
2017-06-09T08:06:53.163Z,170
2017-06-09T08:08:03.519Z,170
2017-06-09T08:09:13.875Z,170
2017-06-09T08:10:24.243Z,170
2017-06-09T08:11:34.595Z,170
2017-06-09T08:12:44.643Z,170
2017-06-09T08:13:55.302Z,170
2017-06-09T08:15:05.652Z,170
2017-06-09T08:16:15.701Z,170
2017-06-09T08:17:26.076Z,175
2017-06-09T08:18:36.430Z,175
2017-06-09T08:19:46.846Z,175
2017-06-09T08:20:57.202Z,175
2017-06-09T08:22:07.557Z,175
2017-06-09T08:23:17.912Z,175
2017-06-09T08:24:28.258Z,175
2017-06-09T08:25:38.591Z,175
2017-06-09T08:26:48.636Z,175
2017-06-09T08:27:58.981Z,175
2017-06-09T08:29:09.336Z,175
2017-06-09T08:30:19.698Z,175
2017-06-09T08:31:30.108Z,175
2017-06-09T08:32:40.482Z,175
2017-06-09T08:33:50.822Z,175
2017-06-09T08:35:00.874Z,175
2017-06-09T08:36:10.921Z,175
2017-06-09T08:37:21.323Z,180
2017-06-09T08:38:30.430Z,180
2017-06-09T08:39:40.792Z,180
2017-06-09T08:40:51.144Z,180
2017-06-09T08:42:01.512Z,180
2017-06-09T08:43:11.567Z,180
2017-06-09T08:44:21.615Z,180
2017-06-09T08:45:31.971Z,180
2017-06-09T08:46:42.332Z,185
2017-06-09T08:47:52.687Z,180
2017-06-09T08:49:02.787Z,180
2017-06-09T08:50:12.832Z,180
2017-06-09T08:51:23.207Z,180
2017-06-09T08:52:33.586Z,180
2017-06-09T08:53:43.948Z,180
2017-06-09T08:54:54.345Z,180
2017-06-09T08:56:04.394Z,180
2017-06-09T08:57:14.738Z,185
2017-06-09T08:58:25.080Z,185
2017-06-09T08:59:35.154Z,180
2017-06-09T09:00:45.657Z,180
2017-06-09T09:01:55.721Z,190
2017-06-09T09:03:05.774Z,185
2017-06-09T09:04:15.825Z,185
2017-06-09T09:05:26.174Z,185
2017-06-09T09:06:36.584Z,185
2017-06-09T09:07:46.941Z,185
2017-06-09T09:08:57.300Z,185
2017-06-09T09:10:07.662Z,185
2017-06-09T09:11:18.033Z,185
2017-06-09T09:12:28.406Z,185
2017-06-09T09:13:38.772Z,185
2017-06-09T09:14:49.123Z,185
2017-06-09T09:15:59.476Z,185
2017-06-09T09:17:09.830Z,185
2017-06-09T09:18:20.193Z,185
2017-06-09T09:19:30.551Z,185
2017-06-09T09:20:40.913Z,190
2017-06-09T09:21:51.280Z,190
2017-06-09T09:23:01.689Z,190
2017-06-09T09:24:12.095Z,190
2017-06-09T09:25:21.833Z,190
2017-06-09T09:26:32.294Z,190
2017-06-09T09:27:42.648Z,190
2017-06-09T09:28:53.060Z,190
2017-06-09T09:30:03.453Z,190
2017-06-09T09:31:13.824Z,190
2017-06-09T09:32:24.181Z,190
2017-06-09T09:33:34.538Z,190
2017-06-09T09:34:44.580Z,195
2017-06-09T09:35:54.682Z,195
2017-06-09T09:37:05.037Z,195
2017-06-09T09:38:15.426Z,195
2017-06-09T09:39:25.514Z,195
2017-06-09T09:40:35.240Z,195
2017-06-09T09:41:45.631Z,195
2017-06-09T09:42:55.977Z,195
2017-06-09T09:44:06.026Z,195
2017-06-09T09:45:16.381Z,195
2017-06-09T09:46:26.752Z,195
2017-06-09T09:47:37.119Z,195
2017-06-09T09:48:47.160Z,195
2017-06-09T09:49:57.208Z,200
2017-06-09T09:51:07.259Z,200
2017-06-09T09:52:17.616Z,200
2017-06-09T09:53:27.705Z,200
2017-06-09T09:54:37.788Z,205
2017-06-09T09:55:47.858Z,200
2017-06-09T09:56:58.220Z,200
2017-06-09T09:58:08.585Z,200
2017-06-09T09:59:18.678Z,205
2017-06-09T10:00:29.049Z,200
2017-06-09T10:01:39.396Z,205
2017-06-09T10:02:49.760Z,205
2017-06-09T10:04:00.118Z,205
2017-06-09T10:05:09.909Z,205
2017-06-09T10:06:20.274Z,205
2017-06-09T10:07:30.311Z,205
2017-06-09T10:08:40.660Z,205
2017-06-09T10:09:50.711Z,205
2017-06-09T10:11:00.531Z,205
2017-06-09T10:12:10.939Z,205
2017-06-09T10:13:20.980Z,205
2017-06-09T10:14:31.328Z,205
2017-06-09T10:15:41.049Z,210
2017-06-09T10:16:51.132Z,210
2017-06-09T10:18:01.480Z,210
2017-06-09T10:19:11.838Z,210
2017-06-09T10:20:21.882Z,210
2017-06-09T10:21:32.239Z,210
2017-06-09T10:22:42.269Z,210
2017-06-09T10:23:52.010Z,210
2017-06-09T10:25:02.076Z,210
2017-06-09T10:26:12.437Z,210
2017-06-09T10:27:22.510Z,210
2017-06-09T10:28:32.951Z,220
2017-06-09T10:29:43.004Z,215
2017-06-09T10:30:53.037Z,215
2017-06-09T10:32:03.087Z,215
2017-06-09T10:33:13.457Z,215
2017-06-09T10:34:23.576Z,215
2017-06-09T10:35:33.930Z,215
2017-06-09T10:36:44.274Z,215
2017-06-09T10:37:54.317Z,215
2017-06-09T10:39:04.687Z,215
2017-06-09T10:40:15.109Z,220
2017-06-09T10:41:25.472Z,220
2017-06-09T10:42:35.829Z,220
2017-06-09T10:43:46.304Z,220
2017-06-09T10:44:56.662Z,220
2017-06-09T10:46:07.052Z,220
2017-06-09T10:47:17.404Z,220
2017-06-09T10:48:27.759Z,220
2017-06-09T10:49:38.125Z,220
2017-06-09T10:50:48.507Z,220
2017-06-09T10:51:58.926Z,225
2017-06-09T10:53:08.967Z,220
2017-06-09T10:54:19.330Z,225
2017-06-09T10:55:29.695Z,220
2017-06-09T10:56:40.059Z,225
2017-06-09T10:57:50.460Z,225
2017-06-09T10:59:00.814Z,225
2017-06-09T11:00:11.174Z,225
2017-06-09T11:01:21.516Z,225
2017-06-09T11:02:31.545Z,225
2017-06-09T11:03:41.692Z,230
2017-06-09T11:04:52.072Z,225
2017-06-09T11:06:02.108Z,225
2017-06-09T11:07:12.165Z,225
2017-06-09T11:08:22.211Z,225
2017-06-09T11:09:32.621Z,225
2017-06-09T11:10:43.024Z,225
2017-06-09T11:11:53.386Z,225
2017-06-09T11:13:03.131Z,230
2017-06-09T11:14:13.564Z,230
2017-06-09T11:15:23.976Z,230
2017-06-09T11:16:34.018Z,230
2017-06-09T11:17:44.415Z,235
2017-06-09T11:18:54.456Z,235
2017-06-09T11:20:04.829Z,235
2017-06-09T11:21:15.186Z,235
2017-06-09T11:22:24.918Z,235
2017-06-09T11:23:35.285Z,235
2017-06-09T11:24:45.662Z,235
2017-06-09T11:25:55.405Z,225
2017-06-09T11:27:05.891Z,225
2017-06-09T11:28:16.242Z,225
2017-06-09T11:29:26.619Z,230
2017-06-09T11:30:36.657Z,230
2017-06-09T11:31:47.028Z,235
2017-06-09T11:32:57.124Z,230
2017-06-09T11:34:07.479Z,230
2017-06-09T11:35:17.823Z,235
2017-06-09T11:36:27.871Z,240
2017-06-09T11:37:38.227Z,235
2017-06-09T11:38:48.624Z,235
2017-06-09T11:39:58.971Z,235
2017-06-09T11:41:09.305Z,235
2017-06-09T11:42:19.053Z,235
2017-06-09T11:43:29.406Z,235
2017-06-09T11:44:39.789Z,240
2017-06-09T11:45:50.147Z,235
2017-06-09T11:47:00.495Z,240
2017-06-09T11:48:10.868Z,235
2017-06-09T11:49:21.224Z,230
2017-06-09T11:50:31.669Z,230
2017-06-09T11:51:42.013Z,230
2017-06-09T11:52:52.051Z,230
2017-06-09T11:54:02.426Z,230
2017-06-09T11:55:12.464Z,235
2017-06-09T11:56:22.564Z,230
2017-06-09T11:57:32.616Z,230
2017-06-09T11:58:43.029Z,230
2017-06-09T11:59:53.391Z,230
2017-06-09T12:01:03.772Z,230
2017-06-09T12:02:13.499Z,230
2017-06-09T12:03:23.863Z,230
2017-06-09T12:04:34.217Z,230
2017-06-09T12:05:44.255Z,230
2017-06-09T12:06:54.285Z,230
2017-06-09T12:08:04.069Z,230
2017-06-09T12:09:14.435Z,230
2017-06-09T12:10:24.796Z,230
2017-06-09T12:11:34.838Z,230
2017-06-09T12:12:44.860Z,230
2017-06-09T12:13:55.254Z,230
2017-06-09T12:15:05.625Z,230
2017-06-09T12:16:15.984Z,230
2017-06-09T12:17:25.767Z,230
2017-06-09T12:18:36.147Z,230
2017-06-09T12:19:46.282Z,230
2017-06-09T12:20:56.625Z,230
2017-06-09T12:22:06.978Z,230
2017-06-09T12:23:17.328Z,225
2017-06-09T12:24:27.663Z,225
2017-06-09T12:25:37.770Z,225
2017-06-09T12:26:47.807Z,225
2017-06-09T12:27:58.162Z,230
2017-06-09T12:29:08.524Z,225
2017-06-09T12:30:18.991Z,225
2017-06-09T12:31:29.488Z,225
2017-06-09T12:32:39.840Z,230
2017-06-09T12:33:50.197Z,230
2017-06-09T12:35:00.243Z,230
2017-06-09T12:36:10.611Z,230
2017-06-09T12:37:20.991Z,230
2017-06-09T12:38:31.364Z,230
2017-06-09T12:39:41.713Z,230
2017-06-09T12:40:52.079Z,225
2017-06-09T12:42:02.148Z,225
2017-06-09T12:43:11.987Z,225
2017-06-09T12:44:22.353Z,220
2017-06-09T12:45:32.718Z,220
2017-06-09T12:46:42.767Z,220
2017-06-09T12:47:52.816Z,220
2017-06-09T12:49:02.932Z,220
2017-06-09T12:50:13.389Z,220
2017-06-09T12:51:23.431Z,220
2017-06-09T12:52:33.772Z,220
2017-06-09T12:53:43.827Z,220
2017-06-09T12:54:54.252Z,220
2017-06-09T12:56:04.606Z,220
2017-06-09T12:57:14.347Z,215
2017-06-09T12:58:24.398Z,225
2017-06-09T12:59:34.743Z,215
2017-06-09T13:00:44.834Z,215
2017-06-09T13:01:55.208Z,215
2017-06-09T13:03:05.567Z,215
2017-06-09T13:04:15.917Z,215
2017-06-09T13:05:25.971Z,215
2017-06-09T13:06:35.790Z,215
2017-06-09T13:07:46.175Z,215
2017-06-09T13:08:56.550Z,215
2017-06-09T13:10:06.906Z,215
2017-06-09T13:11:17.279Z,215
2017-06-09T13:12:27.670Z,215
2017-06-09T13:13:38.028Z,215
2017-06-09T13:14:48.409Z,215
2017-06-09T13:15:58.461Z,215
2017-06-09T13:17:08.831Z,210
2017-06-09T13:18:19.256Z,210
2017-06-09T13:19:29.645Z,210
2017-06-09T13:20:39.698Z,210
2017-06-09T13:21:49.740Z,210
2017-06-09T13:23:00.106Z,210
2017-06-09T13:24:10.509Z,210
2017-06-09T13:25:20.877Z,210
2017-06-09T13:26:30.919Z,210
2017-06-09T13:27:41.272Z,210
2017-06-09T13:28:51.646Z,210
2017-06-09T13:30:01.983Z,210
2017-06-09T13:31:12.337Z,205
2017-06-09T13:32:22.697Z,205
2017-06-09T13:33:33.058Z,205
2017-06-09T13:34:42.803Z,205
2017-06-09T13:35:53.166Z,205
2017-06-09T13:37:02.902Z,205
2017-06-09T13:38:12.943Z,205
2017-06-09T13:39:23.297Z,205
2017-06-09T13:40:33.654Z,210
2017-06-09T13:41:44.073Z,205
2017-06-09T13:42:54.117Z,200
2017-06-09T13:44:04.529Z,200
2017-06-09T13:45:14.273Z,205
2017-06-09T13:46:24.642Z,200
2017-06-09T13:47:35.049Z,200
2017-06-09T13:48:44.773Z,200
2017-06-09T13:49:55.129Z,200
2017-06-09T13:51:05.533Z,200
2017-06-09T13:52:15.579Z,200
2017-06-09T13:53:25.347Z,200
2017-06-09T13:54:35.700Z,200
2017-06-09T13:55:46.066Z,200
2017-06-09T13:56:56.120Z,195
2017-06-09T13:58:05.869Z,195
2017-06-09T13:59:16.289Z,195
2017-06-09T14:00:26.330Z,195
2017-06-09T14:01:36.696Z,195
2017-06-09T14:02:47.048Z,195
2017-06-09T14:03:57.124Z,195
2017-06-09T14:05:07.524Z,195
2017-06-09T14:06:17.551Z,195
2017-06-09T14:07:27.908Z,195
2017-06-09T14:08:38.281Z,190
2017-06-09T14:09:48.636Z,190
2017-06-09T14:10:59.044Z,190
2017-06-09T14:12:09.396Z,190
2017-06-09T14:13:19.756Z,190
2017-06-09T14:14:29.503Z,190
2017-06-09T14:15:39.566Z,185
2017-06-09T14:16:49.903Z,185
2017-06-09T14:17:59.968Z,185
2017-06-09T14:19:09.696Z,185
2017-06-09T14:20:19.437Z,190
2017-06-09T14:21:29.798Z,185
2017-06-09T14:22:40.166Z,185
2017-06-09T14:23:50.532Z,185
2017-06-09T14:25:00.913Z,185
2017-06-09T14:26:11.297Z,185
2017-06-09T14:27:21.657Z,185
2017-06-09T14:28:32.060Z,185
2017-06-09T14:29:42.130Z,185
2017-06-09T14:30:52.604Z,185
2017-06-09T14:32:03.171Z,180
2017-06-09T14:33:13.548Z,180
2017-06-09T14:34:24.201Z,180
2017-06-09T14:35:34.233Z,180
2017-06-09T14:36:44.621Z,180
2017-06-09T14:37:55.158Z,185
2017-06-09T14:39:05.541Z,180
2017-06-09T14:40:15.909Z,180
2017-06-09T14:41:25.985Z,180
2017-06-09T14:42:36.336Z,180
2017-06-09T14:43:46.679Z,175
2017-06-09T14:44:56.744Z,180
2017-06-09T14:46:07.396Z,180
2017-06-09T14:47:17.761Z,175
2017-06-09T14:48:28.126Z,175
2017-06-09T14:49:38.179Z,175
2017-06-09T14:50:48.225Z,175
2017-06-09T14:51:58.649Z,175
2017-06-09T14:53:09.017Z,175
2017-06-09T14:54:18.758Z,170
2017-06-09T14:55:29.135Z,170
2017-06-09T14:56:39.187Z,170
2017-06-09T14:57:48.982Z,170
2017-06-09T14:58:59.362Z,175
2017-06-09T15:00:09.423Z,170
2017-06-09T15:01:19.780Z,170
2017-06-09T15:02:30.124Z,165
2017-06-09T15:03:39.907Z,165
2017-06-09T15:04:50.271Z,165
2017-06-09T15:06:00.635Z,165
2017-06-09T15:07:11.001Z,165
2017-06-09T15:08:21.361Z,165
2017-06-09T15:09:31.783Z,165
2017-06-09T15:10:42.149Z,165
2017-06-09T15:11:52.199Z,165
2017-06-09T15:13:02.258Z,165
2017-06-09T15:14:12.296Z,160
2017-06-09T15:15:22.705Z,160
2017-06-09T15:16:32.770Z,160
2017-06-09T15:17:42.499Z,160
2017-06-09T15:18:52.554Z,160
2017-06-09T15:20:02.901Z,160
2017-06-09T15:21:12.654Z,160
2017-06-09T15:22:23.001Z,155
2017-06-09T15:23:33.397Z,155
2017-06-09T15:24:43.738Z,155
2017-06-09T15:25:54.106Z,155
2017-06-09T15:27:04.519Z,155
2017-06-09T15:28:14.571Z,155
2017-06-09T15:29:24.632Z,155
2017-06-09T15:30:34.673Z,160
2017-06-09T15:31:44.736Z,155
2017-06-09T15:32:55.113Z,160
2017-06-09T15:34:05.495Z,150
2017-06-09T15:35:15.537Z,155
2017-06-09T15:36:25.912Z,150
2017-06-09T15:37:35.637Z,150
2017-06-09T15:38:45.742Z,150
2017-06-09T15:39:56.090Z,150
2017-06-09T15:41:06.141Z,150
2017-06-09T15:42:16.181Z,150
2017-06-09T15:43:26.541Z,145
2017-06-09T15:44:36.956Z,145
2017-06-09T15:45:46.683Z,145
2017-06-09T15:46:56.723Z,145
2017-06-09T15:48:06.482Z,145
2017-06-09T15:49:16.829Z,145
2017-06-09T15:50:27.336Z,145
2017-06-09T15:51:37.681Z,145
2017-06-09T15:52:47.751Z,145
2017-06-09T15:53:57.799Z,145
2017-06-09T15:55:08.140Z,145
2017-06-09T15:56:18.535Z,140
2017-06-09T15:57:28.890Z,140
2017-06-09T15:58:38.958Z,140
2017-06-09T15:59:49.019Z,140
2017-06-09T16:00:59.069Z,140
2017-06-09T16:02:09.168Z,140
2017-06-09T16:03:19.530Z,140
2017-06-09T16:04:29.899Z,130
2017-06-09T16:05:39.954Z,135
2017-06-09T16:06:49.672Z,130
2017-06-09T16:08:00.092Z,125
2017-06-09T16:09:09.822Z,120
2017-06-09T16:10:20.175Z,120
2017-06-09T16:11:30.219Z,120
2017-06-09T16:12:40.612Z,120
2017-06-09T16:13:51.023Z,115
2017-06-09T16:15:01.382Z,115
2017-06-09T16:16:11.740Z,115
2017-06-09T16:17:22.111Z,115
2017-06-09T16:18:32.727Z,110
2017-06-09T16:19:43.367Z,105
2017-06-09T16:20:53.753Z,105
2017-06-09T16:22:03.808Z,105
2017-06-09T16:23:13.868Z,105
2017-06-09T16:24:23.929Z,105
2017-06-09T16:25:34.353Z,105
2017-06-09T16:26:44.722Z,105
2017-06-09T16:27:55.082Z,105
2017-06-09T16:29:05.153Z,105
2017-06-09T16:30:15.535Z,110
2017-06-09T16:31:25.968Z,105
2017-06-09T16:32:36.333Z,105
2017-06-09T16:33:46.709Z,100
2017-06-09T16:34:57.098Z,100
2017-06-09T16:36:07.158Z,100
2017-06-09T16:37:17.462Z,100
2017-06-09T16:38:27.950Z,105
2017-06-09T16:39:38.311Z,105
2017-06-09T16:40:48.038Z,105
2017-06-09T16:41:58.403Z,105
2017-06-09T16:43:08.521Z,105
2017-06-09T16:44:18.560Z,110
2017-06-09T16:45:28.314Z,110
2017-06-09T16:46:38.665Z,110
2017-06-09T16:47:48.703Z,115
2017-06-09T16:49:00.018Z,110
2017-06-09T16:50:11.276Z,115
2017-06-09T16:51:21.668Z,120